National Weather Service United States Department of Commerce

Cold temperatures, gusty winds and mountian snow for the Northeast

A strong low pressure system off the New England coast will continue to produce periods of rain, high-elevation snow, and unseasonably cold temperatures to the Northeast on Sunday. A few Winter Weather Advisories are in effect for mountainous parts of New England. Read More >


High pressure will build in from the west, providing VFR conditions under clear skies. Surface winds will be northwest at 5-7kts. Expect 20-30kt compression winds as aircraft transition from downwind to final approach in N ops. Flight hazards in the TRACON airspace: LGT-MOD Turbulence below 100 until 03z.


Updated: 10/22/2016 8:20 PM 

CLT Terminal Aerodrome Forecast:
FTUS80 KCLT 230854 AAA
KCLT 230851Z 2309/2406 32003KT P6SM SKC
     FM231600 25006KT P6SM SKC
     FM232300 22005KT P6SM SKC

CLT TRACON Area Remark:
Convective Gate Forecast / Collaborative Convective Forecast Product / Vertical Wind Profile
Convective Gate Forecast
SIGMETS/ Southeast Radar & Satellite Loops (click on image to enlarge)

Southeast Radar Loop